createdAt,value
2019-03-30T00:01:37.499Z,74.90
2019-03-30T00:04:05.497Z,74.90
2019-03-30T00:06:33.501Z,74.80
2019-03-30T00:09:01.499Z,75.00
2019-03-30T00:11:30.709Z,75.10
2019-03-30T00:13:58.872Z,75.10
2019-03-30T00:16:26.902Z,75.10
2019-03-30T00:18:54.901Z,75.20
2019-03-30T00:21:22.885Z,75.20
2019-03-30T00:23:50.897Z,74.90
2019-03-30T00:26:18.883Z,74.60
2019-03-30T00:28:47.198Z,75.00
2019-03-30T00:31:14.875Z,75.40
2019-03-30T00:33:43.219Z,76.40
2019-03-30T00:36:11.678Z,75.80
2019-03-30T00:38:40.190Z,76.50
2019-03-30T00:41:08.176Z,77.10
2019-03-30T00:43:36.247Z,76.90
2019-03-30T00:46:04.601Z,78.50
2019-03-30T00:48:32.605Z,78.40
2019-03-30T00:51:00.586Z,78.80
2019-03-30T00:53:28.572Z,79.20
2019-03-30T00:55:56.572Z,79.70
2019-03-30T00:58:25.755Z,79.90
2019-03-30T01:00:52.590Z,79.90
2019-03-30T01:03:20.564Z,79.50
2019-03-30T01:05:48.552Z,79.80
2019-03-30T01:08:16.555Z,79.50
2019-03-30T01:10:44.536Z,79.80
2019-03-30T01:13:13.075Z,79.90
2019-03-30T01:15:41.089Z,80.30
2019-03-30T01:18:09.085Z,80.40
2019-03-30T01:20:37.063Z,81.10
2019-03-30T01:23:05.072Z,81.50
2019-03-30T01:25:33.071Z,81.50
2019-03-30T01:28:01.068Z,81.70
2019-03-30T01:30:29.087Z,82.10
2019-03-30T01:32:57.076Z,82.10
2019-03-30T01:35:25.249Z,82.30
2019-03-30T01:37:53.097Z,82.80
2019-03-30T01:40:21.122Z,82.60
2019-03-30T01:42:49.105Z,82.20
2019-03-30T01:45:17.109Z,82.70
2019-03-30T01:47:45.099Z,83.50
2019-03-30T01:50:17.703Z,83.80
2019-03-30T01:52:41.103Z,83.70
2019-03-30T01:55:09.095Z,84.00
2019-03-30T01:57:37.076Z,83.70
2019-03-30T02:00:05.869Z,83.20
2019-03-30T02:02:33.861Z,82.90
2019-03-30T02:05:01.844Z,82.90
2019-03-30T02:07:29.867Z,82.10
2019-03-30T02:09:57.860Z,81.70
2019-03-30T02:12:25.849Z,81.70
2019-03-30T02:14:54.316Z,81.40
2019-03-30T02:17:22.296Z,81.40
2019-03-30T02:19:50.295Z,81.70
2019-03-30T02:22:18.317Z,81.90
2019-03-30T02:24:46.310Z,82.20
2019-03-30T02:27:14.300Z,81.80
2019-03-30T02:29:42.299Z,82.00
2019-03-30T02:32:10.286Z,82.10
2019-03-30T02:34:38.244Z,81.80
2019-03-30T02:37:06.262Z,83.10
2019-03-30T02:39:34.229Z,82.70
2019-03-30T02:42:02.217Z,82.60
2019-03-30T02:44:30.235Z,82.80
2019-03-30T02:46:58.226Z,83.50
2019-03-30T02:49:26.197Z,83.40
2019-03-30T02:51:54.212Z,83.20
2019-03-30T02:54:22.195Z,83.30
2019-03-30T02:56:50.234Z,83.40
2019-03-30T02:59:18.221Z,83.70
2019-03-30T03:01:46.242Z,83.30
2019-03-30T03:04:14.235Z,83.90
2019-03-30T03:06:42.240Z,84.50
2019-03-30T03:09:10.217Z,84.20
2019-03-30T03:11:38.249Z,84.30
2019-03-30T03:14:06.285Z,84.80
2019-03-30T03:16:34.491Z,84.30
2019-03-30T03:19:02.462Z,84.10
2019-03-30T03:21:30.482Z,84.40
2019-03-30T03:23:58.441Z,84.30
2019-03-30T03:26:26.428Z,84.70
2019-03-30T03:28:54.420Z,84.50
2019-03-30T03:31:22.405Z,84.60
2019-03-30T03:33:50.432Z,85.10
2019-03-30T03:36:18.431Z,84.60
2019-03-30T03:38:46.427Z,84.60
2019-03-30T03:41:14.409Z,84.70
2019-03-30T03:43:42.515Z,84.40
2019-03-30T03:46:10.388Z,84.30
2019-03-30T03:48:38.382Z,84.40
2019-03-30T03:51:24.548Z,84.30
2019-03-30T03:53:34.396Z,83.00
2019-03-30T03:56:03.089Z,83.90
2019-03-30T03:58:32.864Z,84.90
2019-03-30T04:01:01.702Z,84.90
2019-03-30T04:03:30.674Z,85.50
2019-03-30T04:05:58.752Z,85.30
2019-03-30T04:08:27.048Z,85.30
2019-03-30T04:10:55.035Z,85.40
2019-03-30T04:13:23.055Z,85.50
2019-03-30T04:15:51.040Z,85.50
2019-03-30T04:18:20.405Z,85.70
2019-03-30T04:20:48.415Z,86.90
2019-03-30T04:23:16.408Z,85.60
2019-03-30T04:25:44.422Z,86.20
2019-03-30T04:28:12.436Z,86.20
2019-03-30T04:30:40.414Z,86.50
2019-03-30T04:33:08.397Z,86.60
2019-03-30T04:35:36.431Z,87.00
2019-03-30T04:38:04.425Z,86.70
2019-03-30T04:40:32.402Z,86.70
2019-03-30T04:43:00.405Z,86.80
2019-03-30T04:45:28.395Z,87.10
2019-03-30T04:47:56.389Z,87.50
2019-03-30T04:50:24.405Z,87.50
2019-03-30T04:52:52.393Z,87.80
2019-03-30T04:55:20.368Z,87.60
2019-03-30T04:57:49.718Z,87.60
2019-03-30T05:00:16.402Z,87.40
2019-03-30T05:02:44.397Z,87.30
2019-03-30T05:05:12.392Z,87.20
2019-03-30T05:07:40.421Z,87.10
2019-03-30T05:10:08.429Z,86.80
2019-03-30T05:12:36.431Z,86.90
2019-03-30T05:15:04.488Z,87.00
2019-03-30T05:17:46.355Z,87.30
2019-03-30T05:20:00.701Z,87.40
2019-03-30T05:22:28.733Z,87.40
2019-03-30T05:24:56.738Z,88.10
2019-03-30T05:27:24.789Z,87.50
2019-03-30T05:29:52.792Z,88.00
2019-03-30T05:32:20.779Z,87.70
2019-03-30T05:34:48.780Z,87.70
2019-03-30T05:37:16.754Z,87.60
2019-03-30T05:39:44.736Z,87.70
2019-03-30T05:42:12.764Z,87.80
2019-03-30T05:44:40.779Z,87.30
2019-03-30T05:47:08.829Z,87.30
2019-03-30T05:49:36.748Z,87.20
2019-03-30T05:52:04.748Z,87.20
2019-03-30T05:54:32.756Z,85.30
2019-03-30T05:57:00.744Z,87.10
2019-03-30T05:59:28.725Z,86.90
2019-03-30T06:01:56.700Z,87.00
2019-03-30T06:04:24.703Z,87.30
2019-03-30T06:06:52.722Z,87.10
2019-03-30T06:09:20.700Z,86.50
2019-03-30T06:11:48.698Z,86.10
2019-03-30T06:14:16.853Z,85.70
2019-03-30T06:16:44.820Z,85.50
2019-03-30T06:19:12.813Z,85.40
2019-03-30T06:21:42.017Z,85.30
2019-03-30T06:24:10.001Z,83.50
2019-03-30T06:26:37.993Z,84.80
2019-03-30T06:29:05.997Z,84.80
2019-03-30T06:31:34.033Z,84.60
2019-03-30T06:34:02.029Z,84.70
2019-03-30T06:36:30.021Z,84.30
2019-03-30T06:38:58.007Z,83.80
2019-03-30T06:41:26.017Z,83.20
2019-03-30T06:43:54.001Z,82.60
2019-03-30T06:46:21.972Z,82.50
2019-03-30T06:48:49.968Z,81.70
2019-03-30T06:51:18.017Z,80.90
2019-03-30T06:53:46.009Z,79.90
2019-03-30T06:56:14.012Z,79.40
2019-03-30T06:58:41.976Z,78.90
2019-03-30T07:01:09.978Z,78.00
2019-03-30T07:03:37.998Z,77.40
2019-03-30T07:06:05.971Z,76.90
2019-03-30T07:08:33.987Z,76.00
2019-03-30T07:11:02.014Z,75.70
2019-03-30T07:13:30.006Z,75.50
2019-03-30T07:15:57.984Z,75.20
2019-03-30T07:18:26.009Z,74.60
2019-03-30T07:20:54.475Z,74.20
2019-03-30T07:23:23.836Z,73.90
2019-03-30T07:25:51.865Z,72.80
2019-03-30T07:28:19.871Z,72.10
2019-03-30T07:30:48.561Z,71.90
2019-03-30T07:33:16.578Z,71.10
2019-03-30T07:35:44.684Z,70.40
2019-03-30T07:38:12.684Z,69.70
2019-03-30T07:40:40.687Z,69.50
2019-03-30T07:43:08.664Z,68.60
2019-03-30T07:45:36.633Z,67.90
2019-03-30T07:48:04.659Z,67.50
2019-03-30T07:50:32.665Z,66.80
2019-03-30T07:53:00.645Z,66.00
2019-03-30T07:55:28.649Z,66.00
2019-03-30T07:57:56.665Z,65.90
2019-03-30T08:00:30.612Z,64.80
2019-03-30T08:02:52.982Z,64.90
2019-03-30T08:05:21.223Z,63.70
2019-03-30T08:07:49.329Z,63.50
2019-03-30T08:10:17.661Z,62.70
2019-03-30T08:12:45.897Z,63.30
2019-03-30T08:15:13.941Z,62.60
2019-03-30T08:17:41.940Z,62.20
2019-03-30T08:20:10.120Z,61.70
2019-03-30T08:22:38.172Z,61.00
2019-03-30T08:25:06.519Z,60.00
2019-03-30T08:27:34.698Z,59.80
2019-03-30T08:30:02.723Z,58.40
2019-03-30T08:32:30.744Z,58.00
2019-03-30T08:34:58.722Z,57.60
2019-03-30T08:37:26.736Z,57.30
2019-03-30T08:39:54.736Z,57.00
2019-03-30T08:42:22.715Z,56.80
2019-03-30T08:44:50.690Z,56.70
2019-03-30T08:47:18.796Z,55.30
2019-03-30T08:49:46.792Z,54.30
2019-03-30T08:52:14.789Z,54.50
2019-03-30T08:54:42.801Z,53.30
2019-03-30T08:57:10.793Z,53.00
2019-03-30T08:59:38.813Z,52.70
2019-03-30T09:02:06.852Z,53.20
2019-03-30T09:04:34.844Z,51.80
2019-03-30T09:07:03.170Z,51.50
2019-03-30T09:09:31.273Z,50.30
2019-03-30T09:11:59.268Z,49.90
2019-03-30T09:14:27.268Z,50.00
2019-03-30T09:16:55.617Z,47.70
2019-03-30T09:19:23.588Z,45.70
2019-03-30T09:21:51.680Z,44.80
2019-03-30T09:24:20.315Z,43.50
2019-03-30T09:26:49.900Z,42.00
2019-03-30T09:29:18.197Z,40.80
2019-03-30T09:31:46.300Z,38.70
2019-03-30T09:34:14.510Z,38.30
2019-03-30T09:36:42.642Z,37.00
2019-03-30T09:39:10.555Z,36.80
2019-03-30T09:41:38.545Z,35.70
2019-03-30T09:44:06.517Z,34.60
2019-03-30T09:46:34.513Z,34.90
2019-03-30T09:49:02.492Z,34.50
2019-03-30T09:51:30.484Z,34.80
2019-03-30T09:53:58.485Z,35.60
2019-03-30T09:56:26.487Z,35.00
2019-03-30T09:58:54.469Z,36.20
2019-03-30T10:01:22.476Z,35.40
2019-03-30T10:03:50.563Z,34.70
2019-03-30T10:06:18.560Z,34.70
2019-03-30T10:08:46.605Z,35.00
2019-03-30T10:11:14.592Z,34.20
2019-03-30T10:13:42.635Z,34.90
2019-03-30T10:16:10.645Z,35.60
2019-03-30T10:18:38.633Z,34.80
2019-03-30T10:21:06.621Z,34.90
2019-03-30T10:23:34.632Z,35.20
2019-03-30T10:26:02.629Z,34.20
2019-03-30T10:28:30.878Z,34.10
2019-03-30T10:30:58.869Z,34.50
2019-03-30T10:33:26.848Z,33.80
2019-03-30T10:35:54.940Z,34.30
2019-03-30T10:38:22.992Z,34.50
2019-03-30T10:40:50.980Z,33.30
2019-03-30T10:43:19.039Z,33.60
2019-03-30T10:45:47.047Z,32.60
2019-03-30T10:48:15.055Z,32.90
2019-03-30T10:50:43.080Z,31.80
2019-03-30T10:53:11.079Z,32.30
2019-03-30T10:55:39.062Z,30.10
2019-03-30T10:58:07.037Z,29.20
2019-03-30T11:00:38.478Z,29.10
2019-03-30T11:03:06.463Z,28.50
2019-03-30T11:05:34.485Z,28.30
2019-03-30T11:08:02.496Z,29.00
2019-03-30T11:10:30.491Z,29.00
2019-03-30T11:12:58.468Z,29.00
2019-03-30T11:15:26.476Z,28.20
2019-03-30T11:17:54.472Z,29.20
2019-03-30T11:20:22.448Z,29.10
2019-03-30T11:22:50.429Z,29.10
2019-03-30T11:25:18.423Z,29.40
2019-03-30T11:27:46.433Z,28.50
2019-03-30T11:30:15.795Z,28.10
2019-03-30T11:32:43.769Z,29.30
2019-03-30T11:35:11.764Z,29.90
2019-03-30T11:37:39.864Z,28.80
2019-03-30T11:40:07.882Z,29.60
2019-03-30T11:42:35.856Z,28.80
2019-03-30T11:45:04.072Z,29.20
2019-03-30T11:47:32.127Z,28.80
2019-03-30T11:50:00.722Z,28.10
2019-03-30T11:52:28.719Z,28.40
2019-03-30T11:54:56.725Z,27.70
2019-03-30T11:57:25.322Z,27.60
2019-03-30T11:59:53.376Z,28.10
2019-03-30T12:02:27.747Z,27.40
2019-03-30T12:04:49.336Z,27.70
2019-03-30T12:07:17.430Z,27.30
2019-03-30T12:09:45.434Z,27.40
2019-03-30T12:12:13.644Z,26.90
2019-03-30T12:14:42.088Z,27.30
2019-03-30T12:17:10.065Z,28.30
2019-03-30T12:19:38.043Z,27.30
2019-03-30T12:22:06.101Z,27.50
2019-03-30T12:24:34.085Z,28.20
2019-03-30T12:27:02.079Z,27.70
2019-03-30T12:29:30.113Z,26.60
2019-03-30T12:31:58.405Z,25.70
2019-03-30T12:34:26.379Z,25.30
2019-03-30T12:36:55.969Z,25.90
2019-03-30T12:39:22.459Z,25.30
2019-03-30T12:41:50.455Z,27.10
2019-03-30T12:44:18.460Z,26.00
2019-03-30T12:46:46.469Z,25.80
2019-03-30T12:49:14.469Z,25.50
2019-03-30T12:51:42.512Z,26.60
2019-03-30T12:54:10.494Z,25.40
2019-03-30T12:56:38.463Z,26.50
2019-03-30T12:59:06.455Z,27.10
2019-03-30T13:01:34.686Z,27.70
2019-03-30T13:04:02.662Z,27.40
2019-03-30T13:06:30.667Z,25.50
2019-03-30T13:08:58.684Z,30.30
2019-03-30T13:11:26.649Z,29.50
2019-03-30T13:13:54.641Z,26.80
2019-03-30T13:16:22.615Z,26.50
2019-03-30T13:18:50.609Z,26.10
2019-03-30T13:21:18.596Z,26.00
2019-03-30T13:23:46.608Z,25.60
2019-03-30T13:26:14.927Z,25.80
2019-03-30T13:28:42.913Z,26.00
2019-03-30T13:31:10.892Z,27.30
2019-03-30T13:33:39.108Z,26.60
2019-03-30T13:36:10.509Z,27.10
2019-03-30T13:38:35.990Z,26.90
2019-03-30T13:41:03.951Z,26.60
2019-03-30T13:43:33.212Z,26.20
2019-03-30T13:49:11.341Z,26.10
2019-03-30T13:51:39.312Z,27.00
2019-03-30T13:54:07.284Z,27.30
2019-03-30T13:56:35.272Z,27.10
2019-03-30T13:59:03.268Z,27.20
2019-03-30T14:01:31.249Z,26.70
2019-03-30T14:03:59.224Z,27.30
2019-03-30T14:06:27.192Z,26.10
2019-03-30T14:08:55.158Z,26.90
2019-03-30T14:11:23.177Z,28.00
2019-03-30T14:13:51.193Z,27.80
2019-03-30T14:16:19.251Z,27.80
2019-03-30T14:18:47.971Z,29.50
2019-03-30T14:21:15.953Z,29.00
2019-03-30T14:23:44.008Z,28.50
2019-03-30T14:26:31.815Z,27.90
2019-03-30T14:28:58.427Z,27.30
2019-03-30T14:31:27.162Z,28.10
2019-03-30T14:33:56.615Z,28.10
2019-03-30T14:36:24.619Z,27.90
2019-03-30T14:38:52.612Z,28.80
2019-03-30T14:41:20.587Z,28.80
2019-03-30T14:43:48.561Z,28.70
2019-03-30T14:46:16.540Z,28.80
2019-03-30T14:48:44.533Z,29.00
2019-03-30T14:51:12.503Z,29.40
2019-03-30T14:53:40.672Z,29.30
2019-03-30T14:56:09.003Z,29.20
2019-03-30T14:58:37.976Z,29.40
2019-03-30T15:01:05.948Z,30.00
2019-03-30T15:09:48.344Z,29.20
2019-03-30T15:15:53.915Z,29.60
2019-03-30T15:18:37.699Z,29.90
2019-03-30T15:21:12.754Z,29.30
2019-03-30T15:23:40.754Z,29.90
2019-03-30T15:26:08.724Z,29.80
2019-03-30T15:28:36.749Z,29.60
2019-03-30T15:31:04.819Z,29.80
2019-03-30T15:33:32.822Z,30.10
2019-03-30T15:36:03.056Z,30.20
2019-03-30T15:38:31.029Z,30.00
2019-03-30T15:40:59.030Z,30.20
2019-03-30T15:43:37.614Z,30.10
2019-03-30T15:45:55.087Z,30.00
2019-03-30T15:48:23.074Z,30.60
2019-03-30T15:50:51.055Z,31.00
2019-03-30T15:53:19.353Z,31.20
2019-03-30T15:55:47.339Z,30.90
2019-03-30T15:58:15.333Z,31.10
2019-03-30T16:00:43.305Z,31.20
2019-03-30T16:03:11.324Z,31.60
2019-03-30T16:05:39.307Z,31.10
2019-03-30T16:08:07.347Z,30.90
2019-03-30T16:10:35.445Z,31.40
2019-03-30T16:13:03.455Z,31.40
2019-03-30T16:15:31.440Z,31.10
2019-03-30T16:17:59.456Z,31.90
2019-03-30T16:20:27.469Z,31.60
2019-03-30T16:22:55.469Z,31.40
2019-03-30T16:25:23.536Z,31.40
2019-03-30T16:27:51.543Z,31.70
2019-03-30T16:30:19.814Z,32.10
2019-03-30T16:32:47.883Z,32.70
2019-03-30T16:35:15.939Z,32.00
2019-03-30T16:37:45.471Z,32.10
2019-03-30T16:40:13.451Z,32.20
2019-03-30T16:42:41.439Z,32.80
2019-03-30T16:45:09.844Z,33.20
2019-03-30T16:47:37.795Z,34.60
2019-03-30T16:50:06.192Z,34.20
2019-03-30T16:52:34.219Z,34.50
2019-03-30T16:55:02.212Z,34.80
2019-03-30T16:57:42.431Z,34.00
2019-03-30T16:59:58.256Z,34.20
2019-03-30T17:02:26.217Z,34.20
2019-03-30T17:04:54.191Z,33.40
2019-03-30T17:07:22.167Z,33.80
2019-03-30T17:09:50.147Z,33.90
2019-03-30T17:12:18.133Z,34.20
2019-03-30T17:14:46.115Z,34.50
2019-03-30T17:17:16.880Z,34.90
2019-03-30T17:19:44.875Z,35.10
2019-03-30T17:22:12.868Z,35.20
2019-03-30T17:24:41.156Z,35.30
2019-03-30T17:27:09.156Z,35.00
2019-03-30T17:29:37.183Z,37.00
2019-03-30T17:32:05.165Z,37.10
2019-03-30T17:34:33.181Z,36.40
2019-03-30T17:37:01.199Z,37.10
2019-03-30T17:39:29.622Z,36.90
2019-03-30T17:41:57.678Z,37.20
2019-03-30T17:44:25.672Z,37.90
2019-03-30T17:46:53.644Z,37.70
2019-03-30T17:49:21.668Z,38.30
2019-03-30T17:51:49.644Z,39.20
2019-03-30T17:54:17.601Z,38.40
2019-03-30T17:56:45.616Z,38.20
2019-03-30T17:59:13.641Z,39.10
2019-03-30T18:01:42.411Z,39.00
2019-03-30T18:04:10.400Z,38.90
2019-03-30T18:06:38.366Z,38.60
2019-03-30T18:09:06.480Z,39.60
2019-03-30T18:11:34.480Z,39.60
2019-03-30T18:14:02.501Z,39.70
2019-03-30T18:16:30.499Z,39.20
2019-03-30T18:18:58.536Z,38.60
2019-03-30T18:21:26.523Z,38.60
2019-03-30T18:23:54.492Z,38.50
2019-03-30T18:26:22.479Z,39.20
2019-03-30T18:28:50.472Z,39.90
2019-03-30T18:31:18.479Z,39.70
2019-03-30T18:33:46.597Z,40.60
2019-03-30T18:36:15.704Z,40.90
2019-03-30T18:38:44.197Z,41.00
2019-03-30T18:41:13.661Z,40.40
2019-03-30T18:43:41.659Z,40.10
2019-03-30T18:46:09.608Z,40.10
2019-03-30T18:48:37.655Z,41.10
2019-03-30T18:51:05.651Z,42.30
2019-03-30T18:53:33.665Z,42.90
2019-03-30T18:56:01.638Z,42.90
2019-03-30T18:58:41.079Z,43.50
2019-03-30T19:00:57.608Z,44.10
2019-03-30T19:03:25.620Z,43.70
2019-03-30T19:05:53.599Z,44.70
2019-03-30T19:08:21.618Z,44.10
2019-03-30T19:10:49.617Z,44.50
2019-03-30T19:13:17.602Z,45.00
2019-03-30T19:15:45.623Z,45.80
2019-03-30T19:18:13.617Z,45.50
2019-03-30T19:20:41.605Z,44.90
2019-03-30T19:23:09.594Z,44.10
2019-03-30T19:25:37.589Z,43.90
2019-03-30T19:28:05.581Z,44.00
2019-03-30T19:30:33.548Z,44.00
2019-03-30T19:33:01.840Z,44.00
2019-03-30T19:35:29.827Z,45.10
2019-03-30T19:37:57.845Z,45.20
2019-03-30T19:40:25.866Z,47.30
2019-03-30T19:42:55.334Z,48.10
2019-03-30T19:45:23.310Z,48.80
2019-03-30T19:47:51.290Z,48.70
2019-03-30T19:50:19.267Z,49.30
2019-03-30T19:52:47.291Z,49.20
2019-03-30T19:55:15.306Z,49.30
2019-03-30T19:57:43.281Z,49.40
2019-03-30T20:00:11.880Z,48.50
2019-03-30T20:02:39.883Z,47.90
2019-03-30T20:05:07.840Z,47.70
2019-03-30T20:07:35.813Z,47.70
2019-03-30T20:10:04.121Z,48.00
2019-03-30T20:12:32.211Z,48.40
2019-03-30T20:15:00.154Z,48.50
2019-03-30T20:17:28.077Z,48.50
2019-03-30T20:19:56.059Z,48.80
2019-03-30T20:22:24.032Z,48.80
2019-03-30T20:24:52.074Z,48.90
2019-03-30T20:27:20.027Z,48.70
2019-03-30T20:29:47.997Z,48.60
2019-03-30T20:32:15.999Z,48.40
2019-03-30T20:34:43.994Z,47.10
2019-03-30T20:37:11.975Z,47.90
2019-03-30T20:39:40.013Z,47.70
2019-03-30T20:42:07.989Z,47.50
2019-03-30T20:44:37.200Z,47.70
2019-03-30T20:47:05.264Z,47.90
2019-03-30T20:49:33.187Z,48.60
2019-03-30T20:52:01.152Z,50.00
2019-03-30T20:54:29.138Z,50.90
2019-03-30T20:56:57.112Z,50.60
2019-03-30T20:59:39.016Z,50.80
2019-03-30T21:01:53.065Z,51.00
2019-03-30T21:04:21.049Z,51.00
2019-03-30T21:06:49.026Z,52.00
2019-03-30T21:09:17.021Z,53.00
2019-03-30T21:11:44.983Z,53.10
2019-03-30T21:14:12.952Z,52.50
2019-03-30T21:16:41.008Z,52.30
2019-03-30T21:19:08.990Z,53.40
2019-03-30T21:21:36.958Z,54.00
2019-03-30T21:24:04.964Z,54.60
2019-03-30T21:26:32.975Z,55.30
2019-03-30T21:29:00.941Z,55.50
2019-03-30T21:31:29.044Z,55.80
2019-03-30T21:33:57.092Z,56.10
2019-03-30T21:36:25.212Z,56.30
2019-03-30T21:38:53.213Z,56.10
2019-03-30T21:41:21.199Z,56.40
2019-03-30T21:43:49.177Z,56.20
2019-03-30T21:46:17.459Z,56.10
2019-03-30T21:48:45.435Z,55.80
2019-03-30T21:51:13.412Z,56.00
2019-03-30T21:53:41.428Z,56.10
2019-03-30T21:56:09.400Z,55.90
2019-03-30T21:58:37.386Z,55.70
2019-03-30T22:01:05.380Z,55.50
2019-03-30T22:03:33.343Z,55.80
2019-03-30T22:06:01.327Z,56.10
2019-03-30T22:08:29.344Z,56.40
2019-03-30T22:10:57.328Z,56.80
2019-03-30T22:13:25.303Z,56.90
2019-03-30T22:15:53.301Z,57.00
2019-03-30T22:18:21.284Z,56.90
2019-03-30T22:20:49.288Z,57.10
2019-03-30T22:23:17.292Z,57.40
2019-03-30T22:25:45.265Z,57.50
2019-03-30T22:28:13.231Z,57.60
2019-03-30T22:30:41.227Z,57.60
2019-03-30T22:33:09.217Z,57.50
2019-03-30T22:35:37.200Z,57.90
2019-03-30T22:38:05.201Z,58.50
2019-03-30T22:40:33.168Z,58.70
2019-03-30T22:43:01.167Z,59.00
2019-03-30T22:45:29.169Z,58.90
2019-03-30T22:47:57.736Z,59.10
2019-03-30T22:50:25.749Z,59.50
2019-03-30T22:52:53.739Z,59.70
2019-03-30T22:55:21.715Z,59.80
2019-03-30T22:57:49.769Z,59.90
2019-03-30T23:00:39.490Z,60.10
2019-03-30T23:03:07.329Z,60.50
2019-03-30T23:05:35.691Z,61.10
2019-03-30T23:08:03.808Z,61.50
2019-03-30T23:10:31.829Z,62.00
2019-03-30T23:12:59.835Z,62.50
2019-03-30T23:15:27.870Z,63.10
2019-03-30T23:17:55.864Z,63.50
2019-03-30T23:20:23.856Z,63.70
2019-03-30T23:22:52.016Z,63.90
2019-03-30T23:25:20.037Z,64.10
2019-03-30T23:27:48.032Z,64.40
2019-03-30T23:30:16.044Z,64.50
2019-03-30T23:32:44.023Z,65.00
2019-03-30T23:35:12.032Z,65.30
2019-03-30T23:37:40.060Z,65.20
2019-03-30T23:40:08.075Z,65.60
2019-03-30T23:42:36.049Z,65.90
2019-03-30T23:45:04.349Z,66.30
2019-03-30T23:47:32.848Z,66.80
2019-03-30T23:50:01.047Z,67.40
2019-03-30T23:52:29.248Z,67.60
2019-03-30T23:54:57.290Z,68.10
2019-03-30T23:57:25.273Z,68.20
2019-03-30T23:59:53.281Z,68.30
